Other Surface Observations
Issued by NWS Missoula, MT

Home | Current Version | Previous Version | Text Only | Print | Product List | Glossary On
Versions: 1 2 3 4 5 6 7 8 9 10 11 12 13 14 15 16 17 18 19 20 21 22 23 24 25 26 27 28 29 30 31 32 33 34 35 36 37 38 39 40 41 42 43 44 45 46 47 48 49 50
000
SXUS55 KMSO 231353
OSOMSO
MONTANA AWOS SUMMARY
NATIONAL WEATHER SERVICE MISSOULA MT
752 AM MDT SAT AUG 23 2014

Montana AWOS Reports

LAUREL      |K6S8 231335Z AUTO 00000KT 2 1/2SM 13/12 A2989 RMK AO1 T01330122
MALTA       |KM75 231335Z AUTO 36013G20KT 7SM 13/11 A3001 RMK AO1 T01330111




USA.gov is the U.S. government's official web portal to all federal, state and local government web resources and services.